X  Sluiten METAR luchtvaart weer gegevens      EHGG Eelde Airport
Temperatuur
8°C Temperatuur
6°C Dauwpunt
87% Vochtigheid



Wind
8 KM/U
5 MPH
2 M/S
4 KTS



250°
WZW
Huidig weer

Helder Helder
Luchtdruk 1018.92 (hPa) - 30.09 (inHg)
Zicht 6.2 (mijl) - 10 (km)
Vliegveld
Vliegveld code EHGG

Locatie : Eelde Airport
Afstand: 40 (km)

Metar:
EHGG 151725Z AUTO 25004KT 9999 NCD 08/06 Q1019 TEMPO 7000 -SHRA FEW025TCU

Tijd: 15-10-2021 19:25 CEST